sensor_id;sensor_type;location;lat;lon;timestamp;temperature;humidity
37204;DHT22;23098;48.054;10.636;2024-02-21T00:00:47;2.50;99.90
37204;DHT22;23098;48.054;10.636;2024-02-21T00:03:12;2.50;99.90
37204;DHT22;23098;48.054;10.636;2024-02-21T00:05:38;2.40;99.90
37204;DHT22;23098;48.054;10.636;2024-02-21T00:08:03;2.40;99.90
37204;DHT22;23098;48.054;10.636;2024-02-21T00:10:29;2.40;99.90
37204;DHT22;23098;48.054;10.636;2024-02-21T00:12:57;2.40;99.90
37204;DHT22;23098;48.054;10.636;2024-02-21T00:15:22;2.40;99.90
37204;DHT22;23098;48.054;10.636;2024-02-21T00:17:48;2.40;99.90
37204;DHT22;23098;48.054;10.636;2024-02-21T00:20:14;2.40;99.90
37204;DHT22;23098;48.054;10.636;2024-02-21T00:22:39;2.50;99.90
37204;DHT22;23098;48.054;10.636;2024-02-21T00:25:05;2.40;99.90
37204;DHT22;23098;48.054;10.636;2024-02-21T00:27:31;2.40;99.90
37204;DHT22;23098;48.054;10.636;2024-02-21T00:29:57;2.40;99.90
37204;DHT22;23098;48.054;10.636;2024-02-21T00:32:23;2.50;99.90
37204;DHT22;23098;48.054;10.636;2024-02-21T00:34:48;2.50;99.90
37204;DHT22;23098;48.054;10.636;2024-02-21T00:37:14;2.50;99.90
37204;DHT22;23098;48.054;10.636;2024-02-21T00:39:39;2.50;99.90
37204;DHT22;23098;48.054;10.636;2024-02-21T00:42:05;2.50;99.90
37204;DHT22;23098;48.054;10.636;2024-02-21T00:44:30;2.50;99.90
37204;DHT22;23098;48.054;10.636;2024-02-21T00:46:56;2.50;99.90
37204;DHT22;23098;48.054;10.636;2024-02-21T00:49:21;2.40;99.90
37204;DHT22;23098;48.054;10.636;2024-02-21T00:51:47;2.50;99.90
37204;DHT22;23098;48.054;10.636;2024-02-21T00:54:12;2.50;99.90
37204;DHT22;23098;48.054;10.636;2024-02-21T00:56:38;2.50;99.90
37204;DHT22;23098;48.054;10.636;2024-02-21T00:59:03;2.50;99.90
37204;DHT22;23098;48.054;10.636;2024-02-21T01:01:29;2.60;99.90
37204;DHT22;23098;48.054;10.636;2024-02-21T01:03:54;2.60;99.90
37204;DHT22;23098;48.054;10.636;2024-02-21T01:06:20;2.70;99.90
37204;DHT22;23098;48.054;10.636;2024-02-21T01:08:49;2.70;99.90
37204;DHT22;23098;48.054;10.636;2024-02-21T01:11:15;2.80;99.90
37204;DHT22;23098;48.054;10.636;2024-02-21T01:13:41;2.80;99.90
37204;DHT22;23098;48.054;10.636;2024-02-21T01:16:07;2.80;99.90
37204;DHT22;23098;48.054;10.636;2024-02-21T01:18:34;2.80;99.90
37204;DHT22;23098;48.054;10.636;2024-02-21T01:20:59;2.90;99.90
37204;DHT22;23098;48.054;10.636;2024-02-21T01:23:25;2.90;99.90
37204;DHT22;23098;48.054;10.636;2024-02-21T01:25:51;2.90;99.90
37204;DHT22;23098;48.054;10.636;2024-02-21T01:28:16;2.90;99.90
37204;DHT22;23098;48.054;10.636;2024-02-21T01:30:42;2.90;99.90
37204;DHT22;23098;48.054;10.636;2024-02-21T01:33:08;2.90;99.90
37204;DHT22;23098;48.054;10.636;2024-02-21T01:35:34;2.90;99.90
37204;DHT22;23098;48.054;10.636;2024-02-21T01:38:00;2.90;99.90
37204;DHT22;23098;48.054;10.636;2024-02-21T01:40:25;2.90;99.90
37204;DHT22;23098;48.054;10.636;2024-02-21T01:42:51;3.00;99.90
37204;DHT22;23098;48.054;10.636;2024-02-21T01:45:19;2.90;99.90
37204;DHT22;23098;48.054;10.636;2024-02-21T01:47:44;2.90;99.90
37204;DHT22;23098;48.054;10.636;2024-02-21T01:50:11;2.90;99.90
37204;DHT22;23098;48.054;10.636;2024-02-21T01:52:37;2.90;99.90
37204;DHT22;23098;48.054;10.636;2024-02-21T01:55:04;2.90;99.90
37204;DHT22;23098;48.054;10.636;2024-02-21T01:57:30;2.90;99.90
37204;DHT22;23098;48.054;10.636;2024-02-21T01:59:55;2.90;99.90
37204;DHT22;23098;48.054;10.636;2024-02-21T02:02:21;3.00;99.90
37204;DHT22;23098;48.054;10.636;2024-02-21T02:04:47;3.00;99.90
37204;DHT22;23098;48.054;10.636;2024-02-21T02:07:12;3.00;99.90
37204;DHT22;23098;48.054;10.636;2024-02-21T02:09:38;3.00;99.90
37204;DHT22;23098;48.054;10.636;2024-02-21T02:12:04;3.00;99.90
37204;DHT22;23098;48.054;10.636;2024-02-21T02:14:31;3.00;99.90
37204;DHT22;23098;48.054;10.636;2024-02-21T02:16:56;3.00;99.90
37204;DHT22;23098;48.054;10.636;2024-02-21T02:19:22;3.00;99.90
37204;DHT22;23098;48.054;10.636;2024-02-21T02:21:51;3.00;99.90
37204;DHT22;23098;48.054;10.636;2024-02-21T02:24:21;2.90;99.90
37204;DHT22;23098;48.054;10.636;2024-02-21T02:26:47;2.90;99.90
37204;DHT22;23098;48.054;10.636;2024-02-21T02:29:12;2.90;99.90
37204;DHT22;23098;48.054;10.636;2024-02-21T02:31:38;2.80;99.90
37204;DHT22;23098;48.054;10.636;2024-02-21T02:34:04;2.80;99.90
37204;DHT22;23098;48.054;10.636;2024-02-21T02:36:32;2.90;99.90
37204;DHT22;23098;48.054;10.636;2024-02-21T02:38:58;2.80;99.90
37204;DHT22;23098;48.054;10.636;2024-02-21T02:41:23;2.80;99.90
37204;DHT22;23098;48.054;10.636;2024-02-21T02:43:49;2.80;99.90
37204;DHT22;23098;48.054;10.636;2024-02-21T02:46:14;2.80;99.90
37204;DHT22;23098;48.054;10.636;2024-02-21T02:48:40;2.70;99.90
37204;DHT22;23098;48.054;10.636;2024-02-21T02:51:06;2.70;99.90
37204;DHT22;23098;48.054;10.636;2024-02-21T02:53:31;2.60;99.90
37204;DHT22;23098;48.054;10.636;2024-02-21T02:55:57;2.60;99.90
37204;DHT22;23098;48.054;10.636;2024-02-21T02:58:23;2.60;99.90
37204;DHT22;23098;48.054;10.636;2024-02-21T03:00:48;2.60;99.90
37204;DHT22;23098;48.054;10.636;2024-02-21T03:03:14;2.60;99.90
37204;DHT22;23098;48.054;10.636;2024-02-21T03:05:39;2.50;99.90
37204;DHT22;23098;48.054;10.636;2024-02-21T03:08:05;2.50;99.90
37204;DHT22;23098;48.054;10.636;2024-02-21T03:10:33;2.50;99.90
37204;DHT22;23098;48.054;10.636;2024-02-21T03:12:58;2.50;99.90
37204;DHT22;23098;48.054;10.636;2024-02-21T03:15:24;2.50;99.90
37204;DHT22;23098;48.054;10.636;2024-02-21T03:17:50;2.50;99.90
37204;DHT22;23098;48.054;10.636;2024-02-21T03:20:15;2.40;99.90
37204;DHT22;23098;48.054;10.636;2024-02-21T03:22:41;2.40;99.90
37204;DHT22;23098;48.054;10.636;2024-02-21T03:25:08;2.40;99.90
37204;DHT22;23098;48.054;10.636;2024-02-21T03:27:34;2.40;99.90
37204;DHT22;23098;48.054;10.636;2024-02-21T03:29:59;2.30;99.90
37204;DHT22;23098;48.054;10.636;2024-02-21T03:32:25;2.30;99.90
37204;DHT22;23098;48.054;10.636;2024-02-21T03:34:51;2.30;99.90
37204;DHT22;23098;48.054;10.636;2024-02-21T03:37:16;2.30;99.90
37204;DHT22;23098;48.054;10.636;2024-02-21T03:39:42;2.40;99.90
37204;DHT22;23098;48.054;10.636;2024-02-21T03:42:07;2.40;99.90
37204;DHT22;23098;48.054;10.636;2024-02-21T03:44:33;2.40;99.90
37204;DHT22;23098;48.054;10.636;2024-02-21T03:46:59;2.40;99.90
37204;DHT22;23098;48.054;10.636;2024-02-21T03:49:25;2.40;99.90
37204;DHT22;23098;48.054;10.636;2024-02-21T03:51:51;2.40;99.90
37204;DHT22;23098;48.054;10.636;2024-02-21T03:54:16;2.40;99.90
37204;DHT22;23098;48.054;10.636;2024-02-21T03:56:42;2.50;99.90
37204;DHT22;23098;48.054;10.636;2024-02-21T03:59:08;2.50;99.90
37204;DHT22;23098;48.054;10.636;2024-02-21T04:01:36;2.50;99.90
37204;DHT22;23098;48.054;10.636;2024-02-21T04:04:02;2.50;99.90
37204;DHT22;23098;48.054;10.636;2024-02-21T04:06:28;2.60;99.90
37204;DHT22;23098;48.054;10.636;2024-02-21T04:08:54;2.50;99.90
37204;DHT22;23098;48.054;10.636;2024-02-21T04:11:19;2.50;99.90
37204;DHT22;23098;48.054;10.636;2024-02-21T04:13:45;2.50;99.90
37204;DHT22;23098;48.054;10.636;2024-02-21T04:16:14;2.50;99.90
37204;DHT22;23098;48.054;10.636;2024-02-21T04:18:40;2.60;99.90
37204;DHT22;23098;48.054;10.636;2024-02-21T04:21:05;2.50;99.90
37204;DHT22;23098;48.054;10.636;2024-02-21T04:23:31;2.50;99.90
37204;DHT22;23098;48.054;10.636;2024-02-21T04:25:56;2.50;99.90
37204;DHT22;23098;48.054;10.636;2024-02-21T04:28:21;2.50;99.90
37204;DHT22;23098;48.054;10.636;2024-02-21T04:30:47;2.40;99.90
37204;DHT22;23098;48.054;10.636;2024-02-21T04:33:12;2.50;99.90
37204;DHT22;23098;48.054;10.636;2024-02-21T04:35:38;2.50;99.90
37204;DHT22;23098;48.054;10.636;2024-02-21T04:38:04;2.50;99.90
37204;DHT22;23098;48.054;10.636;2024-02-21T04:40:30;2.40;99.90
37204;DHT22;23098;48.054;10.636;2024-02-21T04:42:56;2.40;99.90
37204;DHT22;23098;48.054;10.636;2024-02-21T04:45:22;2.30;99.90
37204;DHT22;23098;48.054;10.636;2024-02-21T04:47:47;2.30;99.90
37204;DHT22;23098;48.054;10.636;2024-02-21T04:50:13;2.30;99.90
37204;DHT22;23098;48.054;10.636;2024-02-21T04:52:38;2.20;99.90
37204;DHT22;23098;48.054;10.636;2024-02-21T04:55:04;2.20;99.90
37204;DHT22;23098;48.054;10.636;2024-02-21T04:57:30;2.10;99.90
37204;DHT22;23098;48.054;10.636;2024-02-21T04:59:55;2.10;99.90
37204;DHT22;23098;48.054;10.636;2024-02-21T05:02:21;2.10;99.90
37204;DHT22;23098;48.054;10.636;2024-02-21T05:04:49;2.00;99.90
37204;DHT22;23098;48.054;10.636;2024-02-21T05:07:15;2.00;99.90
37204;DHT22;23098;48.054;10.636;2024-02-21T05:09:42;1.90;99.90
37204;DHT22;23098;48.054;10.636;2024-02-21T05:12:08;1.90;99.90
37204;DHT22;23098;48.054;10.636;2024-02-21T05:14:33;1.80;99.90
37204;DHT22;23098;48.054;10.636;2024-02-21T05:16:59;1.80;99.90
37204;DHT22;23098;48.054;10.636;2024-02-21T05:19:25;1.70;99.90
37204;DHT22;23098;48.054;10.636;2024-02-21T05:21:50;1.70;99.90
37204;DHT22;23098;48.054;10.636;2024-02-21T05:24:16;1.60;99.90
37204;DHT22;23098;48.054;10.636;2024-02-21T05:26:41;1.60;99.90
37204;DHT22;23098;48.054;10.636;2024-02-21T05:29:07;1.60;99.90
37204;DHT22;23098;48.054;10.636;2024-02-21T05:34:18;1.60;99.90
37204;DHT22;23098;48.054;10.636;2024-02-21T05:36:44;1.70;99.90
37204;DHT22;23098;48.054;10.636;2024-02-21T05:39:10;1.70;99.90
37204;DHT22;23098;48.054;10.636;2024-02-21T05:41:35;1.70;99.90
37204;DHT22;23098;48.054;10.636;2024-02-21T05:44:01;1.70;99.90
37204;DHT22;23098;48.054;10.636;2024-02-21T05:46:27;1.80;99.90
37204;DHT22;23098;48.054;10.636;2024-02-21T05:48:52;1.80;99.90
37204;DHT22;23098;48.054;10.636;2024-02-21T05:51:18;1.80;99.90
37204;DHT22;23098;48.054;10.636;2024-02-21T05:53:43;1.90;99.90
37204;DHT22;23098;48.054;10.636;2024-02-21T05:56:13;1.90;99.90
37204;DHT22;23098;48.054;10.636;2024-02-21T05:58:39;2.00;99.90
37204;DHT22;23098;48.054;10.636;2024-02-21T06:01:05;2.00;99.90
37204;DHT22;23098;48.054;10.636;2024-02-21T06:03:33;2.00;99.90
37204;DHT22;23098;48.054;10.636;2024-02-21T06:05:59;2.00;99.90
37204;DHT22;23098;48.054;10.636;2024-02-21T06:08:25;2.00;99.90
37204;DHT22;23098;48.054;10.636;2024-02-21T06:10:50;2.00;99.90
37204;DHT22;23098;48.054;10.636;2024-02-21T06:13:26;2.00;99.90
37204;DHT22;23098;48.054;10.636;2024-02-21T06:15:52;2.00;99.90
37204;DHT22;23098;48.054;10.636;2024-02-21T06:18:18;2.00;99.90
37204;DHT22;23098;48.054;10.636;2024-02-21T06:20:44;2.00;99.90
37204;DHT22;23098;48.054;10.636;2024-02-21T06:23:09;1.90;99.90
37204;DHT22;23098;48.054;10.636;2024-02-21T06:25:35;1.90;99.90
37204;DHT22;23098;48.054;10.636;2024-02-21T06:28:01;2.00;99.90
37204;DHT22;23098;48.054;10.636;2024-02-21T06:30:26;1.90;99.90
37204;DHT22;23098;48.054;10.636;2024-02-21T06:32:52;1.90;99.90
37204;DHT22;23098;48.054;10.636;2024-02-21T06:35:19;1.90;99.90
37204;DHT22;23098;48.054;10.636;2024-02-21T06:37:44;1.90;99.90
37204;DHT22;23098;48.054;10.636;2024-02-21T06:40:16;1.90;99.90
37204;DHT22;23098;48.054;10.636;2024-02-21T06:42:41;1.90;99.90
37204;DHT22;23098;48.054;10.636;2024-02-21T06:45:07;1.90;99.90
37204;DHT22;23098;48.054;10.636;2024-02-21T06:47:32;1.90;99.90
37204;DHT22;23098;48.054;10.636;2024-02-21T06:49:58;1.90;99.90
37204;DHT22;23098;48.054;10.636;2024-02-21T06:52:23;2.00;99.90
37204;DHT22;23098;48.054;10.636;2024-02-21T06:54:50;2.00;99.90
37204;DHT22;23098;48.054;10.636;2024-02-21T06:57:15;2.00;99.90
37204;DHT22;23098;48.054;10.636;2024-02-21T06:59:42;2.10;99.90
37204;DHT22;23098;48.054;10.636;2024-02-21T07:02:07;2.20;99.90
37204;DHT22;23098;48.054;10.636;2024-02-21T07:04:33;2.30;99.90
37204;DHT22;23098;48.054;10.636;2024-02-21T07:06:59;2.40;99.90
37204;DHT22;23098;48.054;10.636;2024-02-21T07:09:24;2.60;99.90
37204;DHT22;23098;48.054;10.636;2024-02-21T07:11:50;2.60;99.90
37204;DHT22;23098;48.054;10.636;2024-02-21T07:14:15;2.70;99.90
37204;DHT22;23098;48.054;10.636;2024-02-21T07:16:41;2.60;99.90
37204;DHT22;23098;48.054;10.636;2024-02-21T07:19:06;2.60;99.90
37204;DHT22;23098;48.054;10.636;2024-02-21T07:21:32;2.70;99.90
37204;DHT22;23098;48.054;10.636;2024-02-21T07:23:58;2.70;99.90
37204;DHT22;23098;48.054;10.636;2024-02-21T07:26:24;2.70;99.90
37204;DHT22;23098;48.054;10.636;2024-02-21T07:28:49;2.70;99.90
37204;DHT22;23098;48.054;10.636;2024-02-21T07:31:15;2.80;99.90
37204;DHT22;23098;48.054;10.636;2024-02-21T07:33:40;2.90;99.90
37204;DHT22;23098;48.054;10.636;2024-02-21T07:36:07;3.10;99.90
37204;DHT22;23098;48.054;10.636;2024-02-21T07:38:34;3.20;99.90
37204;DHT22;23098;48.054;10.636;2024-02-21T07:40:59;3.30;99.90
37204;DHT22;23098;48.054;10.636;2024-02-21T07:43:25;3.40;99.90
37204;DHT22;23098;48.054;10.636;2024-02-21T07:45:52;3.50;99.90
37204;DHT22;23098;48.054;10.636;2024-02-21T07:48:18;3.70;99.90
37204;DHT22;23098;48.054;10.636;2024-02-21T07:50:44;3.80;99.90
37204;DHT22;23098;48.054;10.636;2024-02-21T07:53:10;3.90;99.90
37204;DHT22;23098;48.054;10.636;2024-02-21T07:55:35;3.90;99.90
37204;DHT22;23098;48.054;10.636;2024-02-21T07:58:01;4.00;99.90
37204;DHT22;23098;48.054;10.636;2024-02-21T08:00:26;4.10;99.90
37204;DHT22;23098;48.054;10.636;2024-02-21T08:02:52;4.30;99.90
37204;DHT22;23098;48.054;10.636;2024-02-21T08:05:17;4.40;99.90
37204;DHT22;23098;48.054;10.636;2024-02-21T08:07:43;4.50;99.90
37204;DHT22;23098;48.054;10.636;2024-02-21T08:10:08;4.70;99.90
37204;DHT22;23098;48.054;10.636;2024-02-21T08:12:34;4.70;99.90
37204;DHT22;23098;48.054;10.636;2024-02-21T08:15:02;4.90;99.90
37204;DHT22;23098;48.054;10.636;2024-02-21T08:17:29;5.10;99.90
37204;DHT22;23098;48.054;10.636;2024-02-21T08:19:54;5.30;99.90
37204;DHT22;23098;48.054;10.636;2024-02-21T08:22:20;5.40;99.90
37204;DHT22;23098;48.054;10.636;2024-02-21T08:24:45;5.40;99.90
37204;DHT22;23098;48.054;10.636;2024-02-21T08:27:11;5.50;99.90
37204;DHT22;23098;48.054;10.636;2024-02-21T08:29:36;5.70;99.90
37204;DHT22;23098;48.054;10.636;2024-02-21T08:32:02;5.80;99.90
37204;DHT22;23098;48.054;10.636;2024-02-21T08:34:28;6.00;99.90
37204;DHT22;23098;48.054;10.636;2024-02-21T08:36:55;6.10;99.90
37204;DHT22;23098;48.054;10.636;2024-02-21T08:39:21;6.30;99.90
37204;DHT22;23098;48.054;10.636;2024-02-21T08:41:46;6.50;99.90
37204;DHT22;23098;48.054;10.636;2024-02-21T08:44:12;6.70;99.90
37204;DHT22;23098;48.054;10.636;2024-02-21T08:46:37;6.90;99.70
37204;DHT22;23098;48.054;10.636;2024-02-21T08:49:05;7.20;99.30
37204;DHT22;23098;48.054;10.636;2024-02-21T08:51:31;7.30;97.90
37204;DHT22;23098;48.054;10.636;2024-02-21T08:53:57;7.40;96.80
37204;DHT22;23098;48.054;10.636;2024-02-21T08:56:23;7.70;97.00
37204;DHT22;23098;48.054;10.636;2024-02-21T08:58:49;7.60;96.70
37204;DHT22;23098;48.054;10.636;2024-02-21T09:01:15;7.80;96.90
37204;DHT22;23098;48.054;10.636;2024-02-21T09:03:40;8.00;96.90
37204;DHT22;23098;48.054;10.636;2024-02-21T09:06:07;8.30;96.50
37204;DHT22;23098;48.054;10.636;2024-02-21T09:08:33;8.40;96.10
37204;DHT22;23098;48.054;10.636;2024-02-21T09:11:00;8.70;96.60
37204;DHT22;23098;48.054;10.636;2024-02-21T09:13:26;8.80;92.50
37204;DHT22;23098;48.054;10.636;2024-02-21T09:15:52;9.00;90.40
37204;DHT22;23098;48.054;10.636;2024-02-21T09:18:18;9.10;91.20
37204;DHT22;23098;48.054;10.636;2024-02-21T09:20:43;9.30;90.20
37204;DHT22;23098;48.054;10.636;2024-02-21T09:23:09;9.10;88.00
37204;DHT22;23098;48.054;10.636;2024-02-21T09:25:35;9.10;89.50
37204;DHT22;23098;48.054;10.636;2024-02-21T09:28:02;9.20;89.20
37204;DHT22;23098;48.054;10.636;2024-02-21T09:30:27;9.20;87.40
37204;DHT22;23098;48.054;10.636;2024-02-21T09:32:53;9.30;90.20
37204;DHT22;23098;48.054;10.636;2024-02-21T09:35:20;9.50;90.20
37204;DHT22;23098;48.054;10.636;2024-02-21T09:37:48;9.70;90.20
37204;DHT22;23098;48.054;10.636;2024-02-21T09:40:15;9.80;87.10
37204;DHT22;23098;48.054;10.636;2024-02-21T09:42:44;9.80;84.60
37204;DHT22;23098;48.054;10.636;2024-02-21T09:45:20;9.80;84.70
37204;DHT22;23098;48.054;10.636;2024-02-21T09:50:40;10.20;83.50
37204;DHT22;23098;48.054;10.636;2024-02-21T09:53:09;10.10;83.70
37204;DHT22;23098;48.054;10.636;2024-02-21T09:55:37;10.30;83.90
37204;DHT22;23098;48.054;10.636;2024-02-21T09:58:05;10.50;84.00
37204;DHT22;23098;48.054;10.636;2024-02-21T10:00:31;10.50;84.80
37204;DHT22;23098;48.054;10.636;2024-02-21T10:02:58;10.40;81.40
37204;DHT22;23098;48.054;10.636;2024-02-21T10:05:23;10.50;84.30
37204;DHT22;23098;48.054;10.636;2024-02-21T10:07:50;10.60;83.10
37204;DHT22;23098;48.054;10.636;2024-02-21T10:10:16;10.60;81.70
37204;DHT22;23098;48.054;10.636;2024-02-21T10:12:51;10.50;82.50
37204;DHT22;23098;48.054;10.636;2024-02-21T10:15:20;10.60;82.80
37204;DHT22;23098;48.054;10.636;2024-02-21T10:17:59;10.40;79.80
37204;DHT22;23098;48.054;10.636;2024-02-21T10:20:26;10.50;80.60
37204;DHT22;23098;48.054;10.636;2024-02-21T10:23:01;10.70;81.90
37204;DHT22;23098;48.054;10.636;2024-02-21T10:25:34;10.90;81.80
37204;DHT22;23098;48.054;10.636;2024-02-21T10:27:59;10.90;79.40
37204;DHT22;23098;48.054;10.636;2024-02-21T10:30:25;10.90;80.90
37204;DHT22;23098;48.054;10.636;2024-02-21T10:32:51;10.90;79.50
37204;DHT22;23098;48.054;10.636;2024-02-21T10:35:30;11.10;81.20
37204;DHT22;23098;48.054;10.636;2024-02-21T10:37:59;11.10;79.30
37204;DHT22;23098;48.054;10.636;2024-02-21T10:40:29;10.90;77.30
37204;DHT22;23098;48.054;10.636;2024-02-21T10:43:01;10.70;78.70
37204;DHT22;23098;48.054;10.636;2024-02-21T10:45:32;10.70;78.90
37204;DHT22;23098;48.054;10.636;2024-02-21T10:48:11;10.70;78.20
37204;DHT22;23098;48.054;10.636;2024-02-21T10:50:53;10.80;79.00
37204;DHT22;23098;48.054;10.636;2024-02-21T10:58:46;11.20;78.00
37204;DHT22;23098;48.054;10.636;2024-02-21T11:01:13;11.20;77.30
37204;DHT22;23098;48.054;10.636;2024-02-21T11:03:41;11.30;77.10
37204;DHT22;23098;48.054;10.636;2024-02-21T11:06:10;11.20;77.80
37204;DHT22;23098;48.054;10.636;2024-02-21T11:08:37;11.40;80.40
37204;DHT22;23098;48.054;10.636;2024-02-21T11:11:04;11.50;79.00
37204;DHT22;23098;48.054;10.636;2024-02-21T11:13:37;11.50;78.70
37204;DHT22;23098;48.054;10.636;2024-02-21T11:16:10;11.70;78.80
37204;DHT22;23098;48.054;10.636;2024-02-21T11:18:39;11.70;78.30
37204;DHT22;23098;48.054;10.636;2024-02-21T11:21:05;11.70;77.90
37204;DHT22;23098;48.054;10.636;2024-02-21T11:23:31;11.90;79.00
37204;DHT22;23098;48.054;10.636;2024-02-21T11:26:07;11.90;77.40
37204;DHT22;23098;48.054;10.636;2024-02-21T11:28:33;12.00;77.80
37204;DHT22;23098;48.054;10.636;2024-02-21T11:31:10;12.00;76.00
37204;DHT22;23098;48.054;10.636;2024-02-21T11:33:39;12.10;75.50
37204;DHT22;23098;48.054;10.636;2024-02-21T11:36:05;12.30;76.90
37204;DHT22;23098;48.054;10.636;2024-02-21T11:38:30;12.60;77.90
37204;DHT22;23098;48.054;10.636;2024-02-21T11:40:57;12.90;76.60
37204;DHT22;23098;48.054;10.636;2024-02-21T11:43:23;12.70;74.30
37204;DHT22;23098;48.054;10.636;2024-02-21T11:45:49;13.00;76.60
37204;DHT22;23098;48.054;10.636;2024-02-21T11:48:14;13.30;75.50
37204;DHT22;23098;48.054;10.636;2024-02-21T11:50:40;13.30;73.70
37204;DHT22;23098;48.054;10.636;2024-02-21T11:53:05;13.40;73.50
37204;DHT22;23098;48.054;10.636;2024-02-21T11:55:31;13.60;71.40
37204;DHT22;23098;48.054;10.636;2024-02-21T11:57:56;13.50;72.20
37204;DHT22;23098;48.054;10.636;2024-02-21T12:00:22;13.40;72.00
37204;DHT22;23098;48.054;10.636;2024-02-21T12:02:50;13.60;72.20
37204;DHT22;23098;48.054;10.636;2024-02-21T12:05:16;13.60;71.40
37204;DHT22;23098;48.054;10.636;2024-02-21T12:07:42;13.40;70.70
37204;DHT22;23098;48.054;10.636;2024-02-21T12:10:11;13.40;71.00
37204;DHT22;23098;48.054;10.636;2024-02-21T12:12:37;13.10;69.80
37204;DHT22;23098;48.054;10.636;2024-02-21T12:15:07;13.20;69.90
37204;DHT22;23098;48.054;10.636;2024-02-21T12:17:33;13.20;68.20
37204;DHT22;23098;48.054;10.636;2024-02-21T12:20:00;13.20;69.90
37204;DHT22;23098;48.054;10.636;2024-02-21T12:22:26;13.00;68.70
37204;DHT22;23098;48.054;10.636;2024-02-21T12:24:52;12.90;71.70
37204;DHT22;23098;48.054;10.636;2024-02-21T12:27:18;12.70;70.00
37204;DHT22;23098;48.054;10.636;2024-02-21T12:29:43;12.40;69.90
37204;DHT22;23098;48.054;10.636;2024-02-21T12:32:09;12.40;70.30
37204;DHT22;23098;48.054;10.636;2024-02-21T12:34:34;12.40;71.80
37204;DHT22;23098;48.054;10.636;2024-02-21T12:37:02;12.70;72.00
37204;DHT22;23098;48.054;10.636;2024-02-21T12:39:28;12.60;72.10
37204;DHT22;23098;48.054;10.636;2024-02-21T12:41:54;12.70;72.10
37204;DHT22;23098;48.054;10.636;2024-02-21T12:44:21;12.90;73.60
37204;DHT22;23098;48.054;10.636;2024-02-21T12:46:47;13.10;70.90
37204;DHT22;23098;48.054;10.636;2024-02-21T12:49:17;13.10;72.50
37204;DHT22;23098;48.054;10.636;2024-02-21T12:51:43;12.90;69.70
37204;DHT22;23098;48.054;10.636;2024-02-21T12:54:09;12.90;70.20
37204;DHT22;23098;48.054;10.636;2024-02-21T12:56:37;12.80;68.60
37204;DHT22;23098;48.054;10.636;2024-02-21T12:59:03;12.70;69.60
37204;DHT22;23098;48.054;10.636;2024-02-21T13:01:29;12.80;71.10
37204;DHT22;23098;48.054;10.636;2024-02-21T13:03:54;12.90;71.20
37204;DHT22;23098;48.054;10.636;2024-02-21T13:06:21;13.00;71.40
37204;DHT22;23098;48.054;10.636;2024-02-21T13:08:46;13.00;72.00
37204;DHT22;23098;48.054;10.636;2024-02-21T13:11:13;13.10;70.90
37204;DHT22;23098;48.054;10.636;2024-02-21T13:13:39;13.20;69.50
37204;DHT22;23098;48.054;10.636;2024-02-21T13:16:05;13.20;69.40
37204;DHT22;23098;48.054;10.636;2024-02-21T13:18:30;13.30;71.10
37204;DHT22;23098;48.054;10.636;2024-02-21T13:20:57;13.30;70.40
37204;DHT22;23098;48.054;10.636;2024-02-21T13:23:23;13.30;69.80
37204;DHT22;23098;48.054;10.636;2024-02-21T13:25:49;13.30;69.30
37204;DHT22;23098;48.054;10.636;2024-02-21T13:28:17;13.00;70.40
37204;DHT22;23098;48.054;10.636;2024-02-21T13:30:43;13.00;70.70
37204;DHT22;23098;48.054;10.636;2024-02-21T13:33:10;13.00;69.40
37204;DHT22;23098;48.054;10.636;2024-02-21T13:35:35;13.10;70.60
37204;DHT22;23098;48.054;10.636;2024-02-21T13:38:02;13.20;71.30
37204;DHT22;23098;48.054;10.636;2024-02-21T13:40:28;13.20;69.50
37204;DHT22;23098;48.054;10.636;2024-02-21T13:42:54;13.20;70.10
37204;DHT22;23098;48.054;10.636;2024-02-21T13:45:20;13.20;70.90
37204;DHT22;23098;48.054;10.636;2024-02-21T13:47:45;13.20;71.50
37204;DHT22;23098;48.054;10.636;2024-02-21T13:50:11;13.10;69.90
37204;DHT22;23098;48.054;10.636;2024-02-21T13:52:37;13.10;71.00
37204;DHT22;23098;48.054;10.636;2024-02-21T13:55:03;13.20;71.60
37204;DHT22;23098;48.054;10.636;2024-02-21T13:57:29;13.00;70.00
37204;DHT22;23098;48.054;10.636;2024-02-21T13:59:54;13.00;70.70
37204;DHT22;23098;48.054;10.636;2024-02-21T14:02:20;13.00;71.50
37204;DHT22;23098;48.054;10.636;2024-02-21T14:04:46;12.90;71.30
37204;DHT22;23098;48.054;10.636;2024-02-21T14:07:12;12.90;72.20
37204;DHT22;23098;48.054;10.636;2024-02-21T14:09:38;12.90;72.10
37204;DHT22;23098;48.054;10.636;2024-02-21T14:12:03;12.90;72.50
37204;DHT22;23098;48.054;10.636;2024-02-21T14:14:34;13.10;74.40
37204;DHT22;23098;48.054;10.636;2024-02-21T14:16:59;13.10;70.50
37204;DHT22;23098;48.054;10.636;2024-02-21T14:19:25;13.20;71.00
37204;DHT22;23098;48.054;10.636;2024-02-21T14:21:51;13.10;70.80
37204;DHT22;23098;48.054;10.636;2024-02-21T14:24:16;12.90;70.60
37204;DHT22;23098;48.054;10.636;2024-02-21T14:26:42;12.80;69.50
37204;DHT22;23098;48.054;10.636;2024-02-21T14:29:07;12.70;69.50
37204;DHT22;23098;48.054;10.636;2024-02-21T14:31:34;12.70;70.50
37204;DHT22;23098;48.054;10.636;2024-02-21T14:33:59;12.60;69.90
37204;DHT22;23098;48.054;10.636;2024-02-21T14:36:26;12.50;71.40
37204;DHT22;23098;48.054;10.636;2024-02-21T14:38:51;12.30;71.60
37204;DHT22;23098;48.054;10.636;2024-02-21T14:41:18;12.30;73.40
37204;DHT22;23098;48.054;10.636;2024-02-21T14:43:44;12.30;72.40
37204;DHT22;23098;48.054;10.636;2024-02-21T14:46:09;12.30;74.10
37204;DHT22;23098;48.054;10.636;2024-02-21T14:48:35;12.30;73.90
37204;DHT22;23098;48.054;10.636;2024-02-21T14:51:01;12.20;73.10
37204;DHT22;23098;48.054;10.636;2024-02-21T14:53:27;12.30;75.60
37204;DHT22;23098;48.054;10.636;2024-02-21T14:55:53;12.20;74.50
37204;DHT22;23098;48.054;10.636;2024-02-21T14:58:18;12.10;76.80
37204;DHT22;23098;48.054;10.636;2024-02-21T15:00:45;12.00;73.30
37204;DHT22;23098;48.054;10.636;2024-02-21T15:03:12;11.90;75.90
37204;DHT22;23098;48.054;10.636;2024-02-21T15:05:40;11.90;75.90
37204;DHT22;23098;48.054;10.636;2024-02-21T15:08:06;11.80;75.80
37204;DHT22;23098;48.054;10.636;2024-02-21T15:10:34;11.80;75.20
37204;DHT22;23098;48.054;10.636;2024-02-21T15:13:00;11.70;76.70
37204;DHT22;23098;48.054;10.636;2024-02-21T15:15:25;11.60;76.80
37204;DHT22;23098;48.054;10.636;2024-02-21T15:17:51;11.60;76.20
37204;DHT22;23098;48.054;10.636;2024-02-21T15:20:16;11.50;76.50
37204;DHT22;23098;48.054;10.636;2024-02-21T15:22:42;11.40;77.40
37204;DHT22;23098;48.054;10.636;2024-02-21T15:25:08;11.40;76.80
37204;DHT22;23098;48.054;10.636;2024-02-21T15:27:45;11.30;77.70
37204;DHT22;23098;48.054;10.636;2024-02-21T15:30:12;11.30;77.80